Time;durP1;ratioP1;P1;durP2;ratioP2;P2;SDS_P1;SDS_P2;PMS_P1;PMS_P2;Temp;Humidity;BMP_temperature;BMP_pressure;BME280_temperature;BME280_humidity;BME280_pressure;Samples;Min_cycle;Max_cycle;Signal;HPM_P1;HPM_P2
2021/09/18 00:00:54;;;;;;;4.40;3.80;;;24.40;57.00;;;;;;6241006;23;20392;-85
2021/09/18 00:03:20;;;;;;;4.23;3.83;;;24.40;57.00;;;;;;6217823;23;20428;-86
2021/09/18 00:05:47;;;;;;;5.30;4.30;;;24.40;57.00;;;;;;6267739;23;20373;-87
2021/09/18 00:08:13;;;;;;;4.80;4.30;;;24.40;57.00;;;;;;6240508;23;20381;-87
2021/09/18 00:10:42;;;;;;;4.90;4.00;;;24.40;57.00;;;;;;6239983;23;20381;-87
2021/09/18 00:13:08;;;;;;;4.53;4.13;;;24.40;57.00;;;;;;6241442;23;20381;-87
2021/09/18 00:15:34;;;;;;;7.40;3.77;;;24.40;57.00;;;;;;6241321;23;20377;-86
2021/09/18 00:18:07;;;;;;;4.00;3.40;;;24.40;57.00;;;;;;6268073;23;20374;-86
2021/09/18 00:20:33;;;;;;;4.57;3.87;;;24.40;57.00;;;;;;6240616;23;20401;-86
2021/09/18 00:23:02;;;;;;;4.83;3.90;;;24.40;57.00;;;;;;6240282;23;20428;-86
2021/09/18 00:25:29;;;;;;;3.40;3.10;;;24.40;57.00;;;;;;6240615;23;20436;-86
2021/09/18 00:27:58;;;;;;;3.53;3.10;;;24.40;57.00;;;;;;6240495;23;20373;-86
2021/09/18 00:30:24;;;;;;;3.90;3.60;;;24.40;57.00;;;;;;6240763;23;20866;-86
2021/09/18 00:32:55;;;;;;;4.00;3.60;;;24.40;57.00;;;;;;6267937;23;20421;-86
2021/09/18 00:35:21;;;;;;;3.20;2.90;;;24.40;57.00;;;;;;6239917;23;20384;-86
2021/09/18 00:37:50;;;;;;;3.67;3.37;;;24.40;57.00;;;;;;6240581;23;20452;-86
2021/09/18 00:40:19;;;;;;;3.57;3.00;;;24.40;57.00;;;;;;6241243;23;20931;-86
2021/09/18 00:42:47;;;;;;;4.70;4.30;;;24.40;57.00;;;;;;6266592;23;20409;-86
2021/09/18 00:45:13;;;;;;;4.40;4.00;;;24.40;57.00;;;;;;6240634;23;20384;-86
2021/09/18 00:47:39;;;;;;;3.93;3.57;;;24.40;57.00;;;;;;6240836;23;20405;-86
2021/09/18 00:50:06;;;;;;;3.20;2.90;;;24.40;57.00;;;;;;6241277;23;20440;-87
2021/09/18 00:52:32;;;;;;;4.17;3.80;;;24.40;57.00;;;;;;6240009;23;20477;-86
2021/09/18 00:55:02;;;;;;;4.83;3.60;;;24.40;57.00;;;;;;6240205;23;20386;-86
2021/09/18 00:57:32;;;;;;;4.37;3.93;;;24.40;57.00;;;;;;6266480;23;20434;-86
2021/09/18 01:00:06;;;;;;;4.93;4.43;;;24.40;57.00;;;;;;6266408;23;20373;-87
2021/09/18 01:02:36;;;;;;;4.30;3.90;;;24.40;57.00;;;;;;6239871;23;20423;-86
2021/09/18 01:05:04;;;;;;;3.83;3.30;;;24.40;57.00;;;;;;6239762;23;20440;-87
2021/09/18 01:07:34;;;;;;;4.53;4.13;;;24.40;57.00;;;;;;6240015;23;20405;-86
2021/09/18 01:10:03;;;;;;;3.90;3.60;;;24.40;57.00;;;;;;6238834;23;20389;-87
2021/09/18 01:12:37;;;;;;;4.07;3.77;;;24.30;56.90;;;;;;6238972;23;20416;-87
2021/09/18 01:15:04;;;;;;;3.93;3.43;;;24.40;57.00;;;;;;6266060;23;20372;-87
2021/09/18 01:17:30;;;;;;;3.80;3.50;;;24.40;57.00;;;;;;6239085;23;20381;-88
2021/09/18 01:19:56;;;;;;;3.63;3.33;;;24.40;56.90;;;;;;6239609;23;20491;-87
2021/09/18 01:22:25;;;;;;;4.00;3.60;;;24.30;56.90;;;;;;6238740;23;20190;-87
2021/09/18 01:24:52;;;;;;;4.87;4.27;;;24.40;56.90;;;;;;6238821;23;20377;-87
2021/09/18 01:27:20;;;;;;;3.63;3.27;;;24.40;56.90;;;;;;6266242;23;20373;-87
2021/09/18 01:29:50;;;;;;;4.37;3.97;;;24.40;57.00;;;;;;6239510;23;20408;-87
2021/09/18 01:32:18;;;;;;;4.20;3.80;;;24.40;57.00;;;;;;6239669;23;20443;-87
2021/09/18 01:34:44;;;;;;;4.50;4.03;;;24.30;56.90;;;;;;6239779;23;20382;-87
2021/09/18 01:37:10;;;;;;;3.67;3.27;;;24.30;56.90;;;;;;6239288;23;20392;-87
2021/09/18 01:39:36;;;;;;;4.00;3.70;;;24.30;56.90;;;;;;6239448;23;20181;-87
2021/09/18 01:42:03;;;;;;;4.57;4.17;;;24.30;56.90;;;;;;6266416;23;20139;-87
2021/09/18 01:44:29;;;;;;;5.17;3.93;;;24.30;56.90;;;;;;6239745;23;20177;-87
2021/09/18 01:46:58;;;;;;;3.83;3.53;;;24.30;56.90;;;;;;6266168;23;20373;-87
2021/09/18 01:49:27;;;;;;;4.60;4.20;;;24.40;57.00;;;;;;6266148;23;20143;-87
2021/09/18 01:52:08;;;;;;;4.03;3.73;;;24.30;56.90;;;;;;6265728;23;20725;-87
2021/09/18 01:54:34;;;;;;;3.30;3.10;;;24.30;56.90;;;;;;6239081;23;20377;-87
2021/09/18 01:57:06;;;;;;;3.93;3.57;;;24.30;56.90;;;;;;6239125;23;20385;-87
2021/09/18 01:59:35;;;;;;;4.43;3.83;;;24.30;56.90;;;;;;6239155;23;20433;-88
2021/09/18 02:02:01;;;;;;;3.83;3.53;;;24.30;56.90;;;;;;6238523;23;20404;-87
2021/09/18 02:04:37;;;;;;;4.30;3.90;;;24.30;56.90;;;;;;6238932;23;20374;-87
2021/09/18 02:07:03;;;;;;;4.67;4.00;;;24.30;56.90;;;;;;6239382;23;20706;-87
2021/09/18 02:09:28;;;;;;;3.93;3.53;;;24.30;56.90;;;;;;6238246;23;20377;-87
2021/09/18 02:11:54;;;;;;;3.87;3.57;;;24.30;56.90;;;;;;6238964;23;20397;-87
2021/09/18 02:14:20;;;;;;;3.60;3.30;;;24.30;56.90;;;;;;6238673;23;20146;-87
2021/09/18 02:16:46;;;;;;;3.60;3.30;;;24.30;57.00;;;;;;6239049;23;20442;-87
2021/09/18 02:19:13;;;;;;;4.43;4.03;;;24.30;56.90;;;;;;6265884;23;20443;-87
2021/09/18 02:21:42;;;;;;;4.10;3.70;;;24.30;57.00;;;;;;6239576;23;20380;-87
2021/09/18 02:24:15;;;;;;;3.87;3.57;;;24.30;57.00;;;;;;6239059;23;20417;-86
2021/09/18 02:26:41;;;;;;;3.77;3.47;;;24.30;57.50;;;;;;6265571;23;20802;-87
2021/09/18 02:29:12;;;;;;;3.77;3.07;;;24.30;57.00;;;;;;6238258;23;20357;-87
2021/09/18 02:31:41;;;;;;;3.33;3.03;;;24.30;57.00;;;;;;6266199;23;20376;-87
2021/09/18 02:34:06;;;;;;;4.87;3.43;;;24.30;57.00;;;;;;6239274;23;20439;-87
2021/09/18 02:36:34;;;;;;;3.80;3.43;;;24.30;57.00;;;;;;6238868;23;20377;-87
2021/09/18 02:39:03;;;;;;;3.43;3.13;;;24.30;57.00;;;;;;6238755;23;20154;-87
2021/09/18 02:41:29;;;;;;;4.63;3.87;;;24.30;57.10;;;;;;6238822;23;20412;-87
2021/09/18 02:43:54;;;;;;;4.10;3.70;;;24.30;57.10;;;;;;6238921;23;20424;-87
2021/09/18 02:49:43;;;;;;;4.50;4.10;;;24.30;57.00;;;;;;6265178;23;20138;-87
2021/09/18 02:52:09;;;;;;;3.73;3.40;;;24.20;57.00;;;;;;6238700;23;20374;-87
2021/09/18 02:54:35;;;;;;;3.30;2.93;;;24.20;57.10;;;;;;6239174;23;20378;-87
2021/09/18 02:57:01;;;;;;;3.57;3.27;;;24.20;57.10;;;;;;6239211;23;20159;-87
2021/09/18 02:59:27;;;;;;;3.90;3.60;;;24.20;57.00;;;;;;6213615;23;20179;-87
2021/09/18 03:01:53;;;;;;;3.63;3.33;;;24.30;57.10;;;;;;6238949;23;20377;-87
2021/09/18 03:04:18;;;;;;;3.77;3.47;;;24.20;57.00;;;;;;6238081;23;20257;-87
2021/09/18 03:06:45;;;;;;;3.53;3.23;;;24.20;57.00;;;;;;6238679;23;20177;-87
2021/09/18 03:09:11;;;;;;;3.87;3.53;;;24.20;57.00;;;;;;6213196;23;20161;-87
2021/09/18 03:11:36;;;;;;;3.93;3.60;;;24.20;57.00;;;;;;6238903;23;20391;-87
2021/09/18 03:14:02;;;;;;;3.13;2.70;;;24.30;57.10;;;;;;6238093;23;20185;-87
2021/09/18 03:16:32;;;;;;;3.73;3.40;;;24.30;57.10;;;;;;6238822;23;20210;-87
2021/09/18 03:18:58;;;;;;;4.27;3.97;;;24.30;57.00;;;;;;6264793;23;20385;-87
2021/09/18 03:21:25;;;;;;;3.27;2.97;;;24.30;57.00;;;;;;6265443;23;20369;-87
2021/09/18 03:23:51;;;;;;;3.80;3.50;;;24.30;57.00;;;;;;6265504;23;20443;-87
2021/09/18 03:26:17;;;;;;;4.20;3.80;;;24.30;56.90;;;;;;6238836;23;20381;-87
2021/09/18 03:28:43;;;;;;;3.80;3.50;;;24.30;56.90;;;;;;6238493;23;20160;-87
2021/09/18 03:31:09;;;;;;;3.47;3.17;;;24.30;57.00;;;;;;6237740;23;20385;-87
2021/09/18 03:33:35;;;;;;;3.10;2.80;;;24.30;57.00;;;;;;6264758;23;20437;-87
2021/09/18 03:36:01;;;;;;;3.83;3.53;;;24.30;57.00;;;;;;6239392;23;20408;-87
2021/09/18 03:38:28;;;;;;;4.00;3.60;;;24.30;56.90;;;;;;6267192;23;20194;-87
2021/09/18 03:40:57;;;;;;;3.93;3.53;;;24.30;56.90;;;;;;6240453;23;20385;-87
2021/09/18 03:43:23;;;;;;;3.27;2.97;;;24.30;56.90;;;;;;6240197;23;20503;-88
2021/09/18 03:45:51;;;;;;;3.43;3.13;;;24.30;56.90;;;;;;6266797;23;20380;-87
2021/09/18 03:48:17;;;;;;;4.83;4.07;;;24.30;56.90;;;;;;6266924;23;20370;-88
2021/09/18 03:50:43;;;;;;;3.30;2.90;;;24.30;56.80;;;;;;6240070;23;20407;-87
2021/09/18 03:53:11;;;;;;;3.73;3.43;;;24.30;56.80;;;;;;6239452;23;20377;-87
2021/09/18 03:55:37;;;;;;;3.97;3.60;;;24.30;56.80;;;;;;6240259;23;20139;-87
2021/09/18 03:58:03;;;;;;;3.60;3.30;;;24.30;56.80;;;;;;6239758;23;20440;-87
2021/09/18 04:00:29;;;;;;;3.90;3.47;;;24.30;56.80;;;;;;6238713;23;20388;-88
2021/09/18 04:02:58;;;;;;;3.60;3.27;;;24.30;56.80;;;;;;6266037;23;20170;-88
2021/09/18 04:05:24;;;;;;;3.40;2.90;;;24.40;56.90;;;;;;6235996;23;20377;-88
2021/09/18 04:07:53;;;;;;;4.40;3.47;;;24.30;56.80;;;;;;6237402;23;20404;-88
2021/09/18 04:10:18;;;;;;;3.30;3.00;;;24.30;56.80;;;;;;6237635;23;20400;-88
2021/09/18 04:12:44;;;;;;;3.40;3.03;;;24.30;56.80;;;;;;6237133;23;20385;-87
2021/09/18 04:15:10;;;;;;;4.13;3.83;;;24.30;56.80;;;;;;6237173;23;20154;-88
2021/09/18 04:17:36;;;;;;;4.47;4.03;;;24.30;56.80;;;;;;6236654;23;20162;-88
2021/09/18 04:20:06;;;;;;;3.60;3.30;;;24.30;56.80;;;;;;6236288;23;20429;-88
2021/09/18 04:22:32;;;;;;;3.60;3.30;;;24.30;56.80;;;;;;6236870;23;20178;-87
2021/09/18 04:24:57;;;;;;;3.23;2.93;;;24.30;56.80;;;;;;6236800;23;20388;-88
2021/09/18 04:27:23;;;;;;;4.20;3.80;;;24.30;56.80;;;;;;6236411;23;20233;-88
2021/09/18 04:29:49;;;;;;;3.27;2.97;;;24.30;56.80;;;;;;6263241;23;20142;-88
2021/09/18 04:32:15;;;;;;;3.07;2.80;;;24.30;56.80;;;;;;6236337;23;20844;-88
2021/09/18 04:34:41;;;;;;;3.10;2.87;;;24.30;56.80;;;;;;6236567;23;20169;-88
2021/09/18 04:37:07;;;;;;;3.20;2.83;;;24.30;56.80;;;;;;6263443;23;20143;-88
2021/09/18 04:39:33;;;;;;;3.57;3.27;;;24.30;56.80;;;;;;6265119;23;20146;-87
2021/09/18 04:41:59;;;;;;;3.10;2.90;;;24.30;56.90;;;;;;6238832;23;20154;-87
2021/09/18 04:44:24;;;;;;;3.60;3.20;;;24.30;56.80;;;;;;6265451;23;20150;-87
2021/09/18 04:46:50;;;;;;;3.60;3.30;;;24.30;56.80;;;;;;6265474;23;20813;-87
2021/09/18 04:49:16;;;;;;;3.73;3.43;;;24.30;56.80;;;;;;6239286;23;20154;-87
2021/09/18 04:51:45;;;;;;;4.33;3.60;;;24.30;56.80;;;;;;6239568;23;20161;-87
2021/09/18 04:54:11;;;;;;;3.60;3.30;;;24.30;56.80;;;;;;6265412;23;20675;-87
2021/09/18 04:56:39;;;;;;;3.77;3.47;;;24.30;56.80;;;;;;6265825;23;20381;-87
2021/09/18 04:59:08;;;;;;;3.50;3.20;;;24.30;56.80;;;;;;6238986;23;20173;-87
2021/09/18 05:01:33;;;;;;;3.60;3.30;;;24.30;56.80;;;;;;6239812;23;20392;-87
2021/09/18 05:04:05;;;;;;;3.53;3.17;;;24.30;56.80;;;;;;6238469;23;20425;-87
2021/09/18 05:06:33;;;;;;;3.20;2.90;;;24.30;56.80;;;;;;6239064;23;20155;-87
2021/09/18 05:09:05;;;;;;;2.83;2.63;;;24.30;56.80;;;;;;6239359;23;20379;-87
2021/09/18 05:11:31;;;;;;;3.70;3.40;;;24.30;56.80;;;;;;6238855;23;20397;-87
2021/09/18 05:14:04;;;;;;;3.77;3.47;;;24.30;56.80;;;;;;6238538;23;20384;-87
2021/09/18 05:16:30;;;;;;;3.67;3.27;;;24.30;56.80;;;;;;6265066;23;20197;-87
2021/09/18 05:18:57;;;;;;;3.10;2.90;;;24.30;56.80;;;;;;6238372;23;20397;-88
2021/09/18 05:21:26;;;;;;;3.50;3.20;;;24.30;56.80;;;;;;6238622;23;20377;-87
2021/09/18 05:23:52;;;;;;;3.20;2.90;;;24.30;56.80;;;;;;6264895;23;20421;-88
2021/09/18 05:26:18;;;;;;;3.20;3.00;;;24.30;56.80;;;;;;6238123;23;20430;-87
2021/09/18 05:28:44;;;;;;;3.03;2.83;;;24.30;56.70;;;;;;6239476;23;20381;-87
2021/09/18 05:31:10;;;;;;;3.13;2.93;;;24.30;56.70;;;;;;6238616;23;20416;-87
2021/09/18 05:33:36;;;;;;;3.23;3.00;;;24.30;56.70;;;;;;6238404;23;20158;-87
2021/09/18 05:36:02;;;;;;;3.10;2.90;;;24.30;56.70;;;;;;6238291;23;20558;-88
2021/09/18 05:38:28;;;;;;;3.10;2.90;;;24.30;56.70;;;;;;6265167;23;20436;-87
2021/09/18 05:40:54;;;;;;;3.40;3.10;;;24.40;56.80;;;;;;6265343;23;20706;-87
2021/09/18 05:43:22;;;;;;;2.80;2.53;;;24.30;56.70;;;;;;6264895;23;20206;-87
2021/09/18 05:45:48;;;;;;;3.33;3.10;;;24.40;56.80;;;;;;6238015;23;20373;-87
2021/09/18 05:48:17;;;;;;;2.87;2.57;;;24.30;56.70;;;;;;6238897;23;20381;-87
2021/09/18 05:50:51;;;;;;;3.33;3.13;;;24.30;56.70;;;;;;6236636;23;20386;-87
2021/09/18 05:53:17;;;;;;;3.07;2.80;;;24.30;56.70;;;;;;6238179;23;20378;-87
2021/09/18 06:06:04;;;;;;;2.60;2.40;;;24.30;56.70;;;;;;6261129;23;20352;-87
2021/09/18 06:08:32;;;;;;;3.13;2.83;;;24.30;56.80;;;;;;6235527;23;20385;-85
2021/09/18 06:10:58;;;;;;;2.40;2.20;;;24.30;56.80;;;;;;6235978;23;20386;-87
2021/09/18 06:13:25;;;;;;;2.67;2.47;;;24.30;56.70;;;;;;6234418;23;20388;-87
2021/09/18 06:15:51;;;;;;;2.80;2.60;;;24.30;56.70;;;;;;6261073;23;20388;-87
2021/09/18 06:18:16;;;;;;;3.30;3.00;;;24.30;56.70;;;;;;6234689;23;20413;-87
2021/09/18 06:20:42;;;;;;;2.90;2.70;;;24.30;57.20;;;;;;6234420;23;20408;-87
2021/09/18 06:23:08;;;;;;;2.90;2.60;;;24.30;56.70;;;;;;6261440;23;20177;-87
2021/09/18 06:25:37;;;;;;;2.63;2.43;;;24.30;56.60;;;;;;6261389;23;20143;-87
2021/09/18 06:28:03;;;;;;;2.50;2.30;;;24.40;56.70;;;;;;6261360;23;20146;-87
2021/09/18 06:30:31;;;;;;;2.60;2.40;;;24.40;56.60;;;;;;6261234;23;20377;-86
2021/09/18 06:32:56;;;;;;;2.73;2.40;;;24.40;56.70;;;;;;6234526;23;20389;-86
2021/09/18 06:39:07;;;;;;;2.60;2.40;;;24.40;56.60;;;;;;6110267;23;20190;-86
2021/09/18 06:41:33;;;;;;;1.90;1.80;;;24.40;56.60;;;;;;6086219;23;20382;-86
2021/09/18 06:44:01;;;;;;;2.50;2.30;;;24.40;56.70;;;;;;6109485;23;20456;-87
2021/09/18 07:07:41;;;;;;;3.07;2.83;;;24.40;56.80;;;;;;5946956;24;20473;-85
2021/09/18 07:30:29;;;;;;;3.17;2.87;;;24.30;56.80;;;;;;6002540;24;20497;-88
2021/09/18 07:33:20;;;;;;;3.50;2.60;;;24.30;56.90;;;;;;5997698;23;20422;-88
2021/09/18 07:35:46;;;;;;;3.20;2.90;;;24.30;56.90;;;;;;6050547;23;20374;-88
2021/09/18 07:38:15;;;;;;;2.97;2.67;;;24.40;56.90;;;;;;6027234;23;20396;-88
2021/09/18 07:40:42;;;;;;;3.10;2.43;;;24.40;56.90;;;;;;6027487;23;20396;-88
2021/09/18 07:43:10;;;;;;;2.87;2.17;;;24.40;56.90;;;;;;6036469;23;20454;-88
2021/09/18 07:45:41;;;;;;;2.57;2.37;;;24.40;56.90;;;;;;6056238;23;20383;-88
2021/09/18 07:48:07;;;;;;;2.87;2.53;;;24.40;56.80;;;;;;6079537;23;20380;-88
2021/09/18 07:50:40;;;;;;;2.50;2.30;;;24.40;56.80;;;;;;6055930;23;20386;-88
2021/09/18 07:53:16;;;;;;;4.13;2.60;;;24.40;56.80;;;;;;6080207;23;20367;-88
2021/09/18 07:55:42;;;;;;;3.40;2.93;;;24.40;56.80;;;;;;6086535;23;20367;-87
2021/09/18 07:58:08;;;;;;;2.63;2.43;;;24.40;56.80;;;;;;6142312;23;20384;-88
2021/09/18 08:00:36;;;;;;;2.93;2.60;;;24.50;56.80;;;;;;6142224;23;20157;-87
2021/09/18 08:03:03;;;;;;;2.90;2.70;;;24.50;56.80;;;;;;6142432;23;20176;-88
2021/09/18 08:05:29;;;;;;;2.87;2.67;;;24.50;56.80;;;;;;6142383;23;20387;-88
2021/09/18 08:07:57;;;;;;;3.30;3.00;;;24.50;56.80;;;;;;6141867;23;20380;-88
2021/09/18 08:10:48;;;;;;;3.70;2.60;;;24.50;56.80;;;;;;6143206;23;20478;-88
2021/09/18 08:13:17;;;;;;;2.97;2.77;;;24.50;56.80;;;;;;6170111;23;20875;-87
2021/09/18 08:15:43;;;;;;;2.80;2.40;;;24.50;56.80;;;;;;6169046;23;20418;-88
2021/09/18 08:18:31;;;;;;;3.30;3.00;;;24.50;56.80;;;;;;6214943;23;20385;-88
2021/09/18 08:21:00;;;;;;;3.20;2.90;;;24.60;56.80;;;;;;6261001;23;20158;-87
2021/09/18 08:23:37;;;;;;;3.00;2.73;;;24.50;56.80;;;;;;6234527;23;20425;-88
2021/09/18 08:27:06;;;;;;;;;;;;;;;;;;;;;
2021/09/18 08:29:31;;;;;;;3.17;2.87;;;24.50;56.80;;;;;;6262345;23;20361;-88
2021/09/18 08:32:07;;;;;;;3.50;3.20;;;24.50;56.80;;;;;;6261321;23;20380;-89
2021/09/18 08:37:26;;;;;;;2.67;2.47;;;24.50;56.80;;;;;;6239993;23;20427;-87
2021/09/18 08:39:54;;;;;;;3.10;2.80;;;24.50;56.80;;;;;;6238588;23;20444;-88
2021/09/18 08:42:21;;;;;;;4.97;2.90;;;24.50;56.80;;;;;;6238010;23;20396;-88
2021/09/18 08:45:36;;;;;;;;;;;;;;;;;;;;;
2021/09/18 08:48:29;;;;;;;;;;;;;;;;;;;;;
2021/09/18 08:51:52;;;;;;;3.80;2.70;;;24.50;56.80;;;;;;6263554;23;20346;-88
2021/09/18 09:01:57;;;;;;;;;;;;;;;;;;;;;
2021/09/18 09:04:51;;;;;;;;;;;;;;;;;;;;;
2021/09/18 09:07:28;;;;;;;4.40;2.90;;;24.50;56.90;;;;;;6201631;23;20355;-88
2021/09/18 09:10:35;;;;;;;3.63;2.83;;;24.50;57.50;;;;;;6175732;23;20395;-87
2021/09/18 09:13:30;;;;;;;;;;;;;;;;;;;;;
2021/09/18 09:16:36;;;;;;;3.40;3.10;;;24.50;56.90;;;;;;6082144;23;20399;-89
2021/09/18 09:19:34;;;;;;;;;;;;;;;;;;;;;
2021/09/18 09:22:59;;;;;;;3.23;2.93;;;24.60;57.00;;;;;;6077167;23;20413;-88
2021/09/18 09:25:34;;;;;;;2.43;2.23;;;24.60;57.00;;;;;;6051473;23;20444;-86
2021/09/18 09:31:46;;;;;;;3.33;3.03;;;24.50;56.90;;;;;;6056951;23;20371;-86
2021/09/18 09:38:22;;;;;;;3.43;3.10;;;24.50;56.90;;;;;;6050576;23;20400;-85
2021/09/18 09:41:03;;;;;;;4.13;3.73;;;24.50;56.90;;;;;;6050560;23;20395;-87
2021/09/18 09:43:46;;;;;;;6.33;4.27;;;24.50;56.90;;;;;;6027374;23;20423;-87
2021/09/18 09:46:12;;;;;;;5.60;4.80;;;24.50;56.80;;;;;;6072202;23;20379;-87
2021/09/18 09:48:41;;;;;;;6.53;3.80;;;24.50;56.80;;;;;;6141657;23;20489;-87
2021/09/18 09:51:12;;;;;;;5.37;4.43;;;24.50;56.70;;;;;;6118429;23;20706;-87
2021/09/18 09:53:39;;;;;;;5.63;4.97;;;24.50;56.70;;;;;;6142508;23;20918;-86
2021/09/18 09:56:41;;;;;;;7.63;5.83;;;24.50;56.60;;;;;;6170244;23;20391;-86
2021/09/18 09:59:11;;;;;;;4.87;4.47;;;24.50;56.60;;;;;;6178852;23;20377;-86
2021/09/18 10:01:50;;;;;;;5.90;3.77;;;24.50;56.70;;;;;;6234022;23;20447;-86
2021/09/18 10:04:35;;;;;;;5.37;4.30;;;24.50;56.70;;;;;;6233866;23;20413;-86
2021/09/18 10:07:14;;;;;;;6.00;3.67;;;24.50;56.70;;;;;;6234830;23;20366;-86
2021/09/18 10:16:13;;;;;;;3.40;3.10;;;24.50;56.70;;;;;;6264177;23;20368;-86
2021/09/18 10:19:17;;;;;;;3.90;3.60;;;24.50;56.70;;;;;;6238005;23;20844;-86
2021/09/18 10:24:56;;;;;;;5.10;4.60;;;24.40;56.60;;;;;;6056375;23;20372;-87
2021/09/18 10:37:46;;;;;;;3.63;3.33;;;24.40;56.60;;;;;;6114317;23;20345;-88
2021/09/18 10:44:24;;;;;;;4.50;4.10;;;24.40;56.60;;;;;;6114245;23;20491;-87
2021/09/18 10:47:01;;;;;;;5.37;3.33;;;24.40;56.60;;;;;;6114477;23;20552;-87
2021/09/18 10:49:40;;;;;;;4.47;3.67;;;24.40;56.70;;;;;;6114611;23;20396;-87
2021/09/18 10:53:03;;;;;;;;;;;;;;;;;;;;;
2021/09/18 10:59:54;;;;;;;7.00;3.60;;;24.40;56.60;;;;;;6095206;23;20405;-87
2021/09/18 11:17:02;;;;;;;;;;;;;;;;;;;;;
2021/09/18 11:26:32;;;;;;;;;;;;;;;;;;;;;
2021/09/18 11:53:35;;;;;;;2.87;2.67;;;24.30;56.50;;;;;;5935462;24;20402;-87
2021/09/18 12:06:18;;;;;;;2.60;2.40;;;24.30;56.50;;;;;;5862892;24;20394;-88
2021/09/18 12:09:01;;;;;;;2.70;2.50;;;24.30;56.60;;;;;;5863939;24;20397;-87
2021/09/18 12:12:15;;;;;;;4.60;2.77;;;24.30;56.60;;;;;;5812427;24;20429;-87
2021/09/18 12:14:54;;;;;;;2.90;2.60;;;24.30;56.50;;;;;;5815952;24;20387;-87
2021/09/18 12:17:43;;;;;;;3.10;2.80;;;24.40;56.60;;;;;;5890986;24;20385;-87
2021/09/18 12:20:55;;;;;;;2.73;2.53;;;24.30;56.50;;;;;;5890026;24;20385;-87
2021/09/18 12:23:42;;;;;;;2.37;2.17;;;24.30;56.50;;;;;;6023877;23;20432;-86
2021/09/18 12:26:45;;;;;;;4.17;3.30;;;24.30;56.50;;;;;;6114481;23;20476;-86
2021/09/18 12:32:39;;;;;;;2.40;2.20;;;24.40;56.60;;;;;;6085688;23;20368;-88
2021/09/18 12:35:23;;;;;;;2.90;2.70;;;24.30;56.60;;;;;;6106000;23;20736;-88
2021/09/18 12:38:02;;;;;;;3.40;3.10;;;24.30;56.60;;;;;;6172937;23;20388;-88
2021/09/18 12:47:02;;;;;;;3.40;3.10;;;24.40;56.60;;;;;;6173070;23;20355;-88
2021/09/18 13:02:34;;;;;;;2.63;2.30;;;24.30;56.40;;;;;;6028143;23;20455;-87
2021/09/18 13:05:03;;;;;;;2.50;2.27;;;24.30;56.40;;;;;;6004157;23;20393;-87
2021/09/18 13:13:46;;;;;;;2.50;2.30;;;24.30;56.20;;;;;;6114952;23;20354;-88
2021/09/18 13:16:25;;;;;;;2.70;2.40;;;24.30;56.30;;;;;;6089145;23;20469;-87
2021/09/18 13:19:26;;;;;;;3.97;2.47;;;24.30;56.30;;;;;;6089694;23;20389;-86
2021/09/18 13:22:02;;;;;;;2.33;2.13;;;24.30;56.30;;;;;;6050465;23;20457;-88
2021/09/18 13:25:36;;;;;;;;;;;;;;;;;;;;;
2021/09/18 13:28:28;;;;;;;2.30;2.10;;;24.30;56.30;;;;;;5999829;24;20374;-88
2021/09/18 13:31:19;;;;;;;;;;;;;;;;;;;;;
2021/09/18 13:34:02;;;;;;;;;;;;;;;;;;;;;
2021/09/18 13:36:42;;;;;;;2.30;2.00;;;24.30;56.30;;;;;;6103002;23;20907;-88
2021/09/18 13:39:13;;;;;;;2.17;1.97;;;24.30;56.30;;;;;;6089563;23;20397;-88
2021/09/18 13:41:57;;;;;;;2.50;1.83;;;24.30;56.30;;;;;;6089764;23;20390;-88
2021/09/18 13:44:33;;;;;;;2.33;2.13;;;24.30;56.20;;;;;;6089768;23;20429;-87
2021/09/18 13:47:26;;;;;;;2.47;2.27;;;24.30;56.10;;;;;;6085614;23;20385;-88
2021/09/18 13:50:21;;;;;;;1.87;1.77;;;24.30;56.10;;;;;;6089395;23;20397;-88
2021/09/18 13:52:53;;;;;;;2.00;1.70;;;24.30;56.10;;;;;;6090173;23;20477;-88
2021/09/18 13:55:25;;;;;;;2.33;1.77;;;24.20;56.00;;;;;;6089152;23;20409;-88
2021/09/18 14:05:10;;;;;;;2.30;2.10;;;24.30;56.00;;;;;;6201926;22;20434;-87
2021/09/18 14:07:59;;;;;;;;;;;;;;;;;;;;;
2021/09/18 14:10:25;;;;;;;1.93;1.77;;;24.20;55.90;;;;;;6083979;23;20741;-88
2021/09/18 14:12:57;;;;;;;2.20;2.00;;;24.20;56.00;;;;;;6083583;23;20402;-88
2021/09/18 14:15:40;;;;;;;2.47;2.00;;;24.20;55.90;;;;;;6059182;23;20159;-88
2021/09/18 14:18:12;;;;;;;2.17;1.97;;;24.20;55.90;;;;;;6077513;23;20390;-88
2021/09/18 14:20:42;;;;;;;1.93;1.73;;;24.20;55.90;;;;;;6081933;23;20399;-88
2021/09/18 14:23:14;;;;;;;2.10;1.90;;;24.20;55.90;;;;;;6084370;23;20430;-88
2021/09/18 14:26:06;;;;;;;2.00;1.80;;;24.20;56.50;;;;;;6084582;23;20770;-87
2021/09/18 14:29:06;;;;;;;2.20;2.00;;;24.20;56.00;;;;;;6070604;23;20434;-88
2021/09/18 14:36:08;;;;;;;;;;;;;;;;;;;;;
2021/09/18 14:38:52;;;;;;;2.60;2.30;;;24.20;56.20;;;;;;6055345;23;20379;-89
2021/09/18 14:44:19;;;;;;;2.73;2.50;;;24.20;56.20;;;;;;6091424;23;20401;-88
2021/09/18 14:46:55;;;;;;;2.20;2.00;;;24.20;56.30;;;;;;6172604;23;20386;-88
2021/09/18 14:49:26;;;;;;;2.20;2.00;;;24.20;56.30;;;;;;6175748;23;20385;-87
2021/09/18 14:51:57;;;;;;;2.13;1.60;;;24.20;56.30;;;;;;6176247;23;20414;-88
2021/09/18 14:54:57;;;;;;;1.80;1.70;;;24.20;56.40;;;;;;6175020;23;20407;-89
2021/09/18 14:58:10;;;;;;;2.10;1.80;;;24.30;56.40;;;;;;6169455;23;20376;-89
2021/09/18 15:08:06;;;;;;;2.53;2.33;;;24.30;56.60;;;;;;6112059;23;20369;-90
2021/09/18 15:27:21;;;;;;;1.93;1.73;;;24.20;56.60;;;;;;5969549;23;20388;-90
2021/09/18 15:29:57;;;;;;;8.27;3.47;;;24.20;56.70;;;;;;5969711;24;20450;-90
2021/09/18 16:03:19;;;;;;;2.00;1.80;;;24.00;56.80;;;;;;6112474;23;20437;-89
2021/09/18 16:13:04;;;;;;;2.20;1.90;;;24.00;56.90;;;;;;6063660;23;20444;-90
2021/09/18 16:23:27;;;;;;;;;;;;;;;;;;;;;
2021/09/18 16:33:20;;;;;;;;;;;;;;;;;;;;;
2021/09/18 16:39:11;;;;;;;2.93;2.00;;;23.90;56.90;;;;;;6113138;23;20353;-89
2021/09/18 16:41:48;;;;;;;3.87;1.80;;;23.90;56.90;;;;;;6113277;23;20393;-89
2021/09/18 16:44:14;;;;;;;3.63;2.13;;;23.90;56.90;;;;;;6190756;23;20429;-90
2021/09/18 16:47:06;;;;;;;3.03;1.70;;;23.90;56.90;;;;;;6206829;23;20417;-89
2021/09/18 16:49:37;;;;;;;1.93;1.60;;;23.90;56.80;;;;;;6232722;23;20157;-89
2021/09/18 16:52:05;;;;;;;1.53;1.40;;;23.90;56.80;;;;;;6206444;23;20366;-89
2021/09/18 16:54:31;;;;;;;2.10;1.90;;;23.90;56.80;;;;;;6207054;23;20735;-89
2021/09/18 16:57:04;;;;;;;2.83;1.70;;;23.90;56.80;;;;;;6232885;23;20417;-89
2021/09/18 17:02:52;;;;;;;3.47;2.13;;;24.00;56.70;;;;;;6232810;23;20485;-90
2021/09/18 17:05:21;;;;;;;2.10;1.80;;;23.90;56.70;;;;;;6206537;23;20430;-89
2021/09/18 17:07:48;;;;;;;2.03;1.50;;;23.90;56.60;;;;;;6264499;23;20397;-90
2021/09/18 17:10:16;;;;;;;2.40;2.20;;;23.90;56.60;;;;;;6237791;23;20378;-89
2021/09/18 17:12:42;;;;;;;3.57;3.23;;;23.90;56.60;;;;;;6264270;23;20377;-89
2021/09/18 17:15:09;;;;;;;4.57;3.93;;;23.90;57.10;;;;;;6238289;23;20391;-89
2021/09/18 17:17:43;;;;;;;7.37;5.90;;;23.90;56.50;;;;;;6265339;23;20397;-89
2021/09/18 17:20:13;;;;;;;6.77;5.70;;;23.90;56.50;;;;;;6239924;23;20387;-90
2021/09/18 17:22:39;;;;;;;7.80;7.10;;;23.90;56.50;;;;;;6238349;23;20484;-89
2021/09/18 17:25:06;;;;;;;9.50;8.60;;;23.90;56.40;;;;;;6237744;23;20382;-89
2021/09/18 17:27:32;;;;;;;9.97;9.03;;;23.90;56.40;;;;;;6238699;23;20388;-90
2021/09/18 17:30:21;;;;;;;9.53;8.63;;;23.90;56.30;;;;;;6264713;23;20366;-89
2021/09/18 17:32:48;;;;;;;9.37;8.40;;;23.90;56.30;;;;;;6236045;23;20181;-89
2021/09/18 17:35:24;;;;;;;7.57;6.87;;;23.80;56.20;;;;;;6213033;23;20421;-89
2021/09/18 17:37:53;;;;;;;8.20;7.50;;;23.90;56.20;;;;;;6237656;23;20377;-89
2021/09/18 17:40:22;;;;;;;7.70;7.00;;;23.80;56.20;;;;;;6264834;23;20388;-90
2021/09/18 17:42:47;;;;;;;6.83;6.23;;;23.80;56.20;;;;;;6265251;23;20417;-90
2021/09/18 17:45:13;;;;;;;6.93;6.30;;;23.80;56.20;;;;;;6238994;23;20392;-89
2021/09/18 17:47:40;;;;;;;6.60;5.70;;;23.80;56.10;;;;;;6238634;23;20155;-87
2021/09/18 17:50:07;;;;;;;6.37;5.80;;;23.80;56.10;;;;;;6238588;23;20385;-88
2021/09/18 17:52:33;;;;;;;5.93;5.33;;;23.80;56.00;;;;;;6238025;23;20392;-88
2021/09/18 17:54:59;;;;;;;6.37;5.70;;;23.80;56.10;;;;;;6237958;23;20381;-89
2021/09/18 17:57:34;;;;;;;6.43;5.83;;;23.80;56.00;;;;;;6238196;23;20389;-89
2021/09/18 18:00:03;;;;;;;5.73;5.23;;;23.80;56.00;;;;;;6264993;23;20357;-89
2021/09/18 18:02:32;;;;;;;5.70;5.20;;;23.70;55.90;;;;;;6264196;23;20361;-89
2021/09/18 18:05:09;;;;;;;;;;;;;;;;;;;;;
2021/09/18 18:07:36;;;;;;;5.77;5.03;;;23.80;55.90;;;;;;6264985;23;20729;-89
2021/09/18 18:10:03;;;;;;;4.70;4.30;;;23.70;55.90;;;;;;6237806;23;20369;-89
2021/09/18 18:12:29;;;;;;;4.90;4.50;;;23.70;55.90;;;;;;6237676;23;20878;-89
2021/09/18 18:14:55;;;;;;;4.90;4.40;;;23.70;55.80;;;;;;6238122;23;20378;-88
2021/09/18 18:17:24;;;;;;;4.80;4.40;;;23.70;55.80;;;;;;6264290;23;20146;-89
2021/09/18 18:19:53;;;;;;;4.57;4.07;;;23.70;55.70;;;;;;6237221;23;20659;-89
2021/09/18 18:22:57;;;;;;;4.33;3.93;;;23.70;55.70;;;;;;6236096;23;20390;-89
2021/09/18 18:25:35;;;;;;;;;;;;;;;;;;;;;